首页
METAR-TAF:

METAR-TAF

机场 :

黑角, 刚果

纬度: 04-49S, 经度: 011-54E, 海拔: 17米

当前天气观测

该预报发布于1小时和9分钟前的17:00 UTC
风速6节,风向西南
温度 29°C
湿度 74%
气压 1009 hPa
能见度10公里或以上
散云层高于1300英尺
少量云层高于3000英尺, 积雨云.

METAR: FCPP 241700Z 23006KT 9999 SCT013 FEW030CB 29/24 Q1009 NOSIG

时间: 19:09 (18:09 UTC)

预报

该预报发布于1小时和9分钟前的17:00 UTC
预报有效从24日的 18点(UTC)到 25日的 18点(UTC)
风速5节,风向南转西南
能見度: 9000
散云层高于1800英尺
少量云层高于3000英尺, 积雨云.
成为
从 24日的 21点(UTC)到 24日的 23点(UTC)
散云层高于1800英尺
成为
从 25日的 12点(UTC)到 25日的 14点(UTC)
散云层高于2000英尺
少量云层高于3000英尺, 积雨云.

TAF: FCPP 241700Z 2418/2518 20005KT 9000 SCT018 FEW030CB BECMG 2421/2423 SCT018 BECMG 2512/2514 SCT020 FEW030CB

超过4000个机场的气象观测和天气预报(METAR&TAF报告)。

可查询的气象台以黄色和红色小点在地图上表示。

将鼠标移到小点上方,可查看气象台名称。

然后点击查看天气观测和预报。

如需切换地图:点击带黑十字的绿色按钮放大地图;点击带横线的绿色按钮缩小地图;或者点击绿色箭头查看邻近地区的地图。


METAR-TAF: